Time;durP1;ratioP1;P1;durP2;ratioP2;P2;SDS_P1;SDS_P2;PMS_P1;PMS_P2;Temp;Humidity;BMP_temperature;BMP_pressure;BME280_temperature;BME280_humidity;BME280_pressure;Samples;Min_cycle;Max_cycle;Signal;HPM_P1;HPM_P2
2023/09/04 00:00:27;;;;;;;5.57;4.27;;;17.70;81.90;;;;;;5049059;28;20233;-68
2023/09/04 00:02:52;;;;;;;7.23;4.40;;;17.60;81.80;;;;;;5051545;28;20188;-68
2023/09/04 00:05:18;;;;;;;8.80;4.20;;;17.60;81.90;;;;;;5052837;28;20561;-68
2023/09/04 00:07:44;;;;;;;6.47;4.70;;;17.60;81.90;;;;;;5053477;28;20193;-69
2023/09/04 00:10:10;;;;;;;6.50;4.00;;;17.50;81.90;;;;;;5054202;28;20245;-68
2023/09/04 00:12:36;;;;;;;7.30;3.87;;;17.50;82.10;;;;;;5060782;28;20527;-69
2023/09/04 00:15:02;;;;;;;6.23;4.30;;;17.60;82.10;;;;;;5058160;28;20446;-68
2023/09/04 00:17:30;;;;;;;6.70;4.43;;;17.50;82.10;;;;;;5056952;28;20535;-70
2023/09/04 00:19:55;;;;;;;8.50;4.50;;;17.50;82.10;;;;;;5051466;28;20423;-67
2023/09/04 00:22:21;;;;;;;6.87;4.30;;;17.50;82.10;;;;;;5049459;28;21032;-68
2023/09/04 00:24:47;;;;;;;8.73;4.70;;;17.50;82.10;;;;;;5051720;28;20236;-68
2023/09/04 00:27:13;;;;;;;7.50;4.30;;;17.40;82.40;;;;;;5052028;28;20495;-68
2023/09/04 00:29:38;;;;;;;7.37;4.37;;;17.40;82.70;;;;;;5052009;28;21123;-70
2023/09/04 00:32:05;;;;;;;6.80;4.10;;;17.40;82.70;;;;;;5049367;28;20205;-70
2023/09/04 00:34:32;;;;;;;5.70;3.73;;;17.40;82.80;;;;;;5051876;28;20755;-69
2023/09/04 00:36:58;;;;;;;11.37;4.90;;;17.40;82.80;;;;;;5048469;28;20427;-70
2023/09/04 00:39:23;;;;;;;7.03;3.90;;;17.40;82.70;;;;;;5050736;28;20426;-69
2023/09/04 00:41:49;;;;;;;8.23;4.40;;;17.30;82.70;;;;;;5048562;28;20919;-69
2023/09/04 00:44:14;;;;;;;6.37;4.00;;;17.30;82.80;;;;;;5051681;28;20208;-69
2023/09/04 00:46:42;;;;;;;6.93;4.10;;;17.30;83.00;;;;;;5051786;28;20184;-70
2023/09/04 00:49:09;;;;;;;6.10;3.53;;;17.30;83.00;;;;;;5051667;28;20187;-70
2023/09/04 00:51:35;;;;;;;6.47;4.53;;;17.20;83.00;;;;;;5047587;28;20463;-71
2023/09/04 00:54:01;;;;;;;7.63;4.50;;;17.20;83.00;;;;;;5050298;28;20419;-69
2023/09/04 00:56:27;;;;;;;7.50;3.97;;;17.20;83.10;;;;;;5051510;28;20303;-69
2023/09/04 00:58:53;;;;;;;11.87;5.90;;;17.20;83.10;;;;;;5051047;28;20458;-69
2023/09/04 01:01:19;;;;;;;6.20;4.23;;;17.10;83.00;;;;;;5048914;28;20212;-67
2023/09/04 01:03:44;;;;;;;7.40;4.60;;;17.10;83.30;;;;;;5050460;28;20208;-70
2023/09/04 01:06:10;;;;;;;8.50;4.20;;;17.10;83.30;;;;;;5051456;28;20416;-69
2023/09/04 01:08:39;;;;;;;8.10;5.20;;;17.00;83.40;;;;;;5051743;28;20653;-67
2023/09/04 01:11:09;;;;;;;6.50;4.20;;;17.00;83.60;;;;;;5049176;28;20707;-70
2023/09/04 01:13:53;;;;;;;8.07;4.73;;;17.00;83.60;;;;;;5051710;28;20458;-69
2023/09/04 01:16:20;;;;;;;7.03;4.60;;;17.10;83.40;;;;;;5046633;28;20502;-69
2023/09/04 01:18:46;;;;;;;7.40;4.37;;;17.00;83.30;;;;;;5056784;28;20442;-68
2023/09/04 01:21:12;;;;;;;8.57;4.87;;;17.00;83.30;;;;;;5053088;28;20893;-69
2023/09/04 01:23:38;;;;;;;5.50;4.10;;;16.90;83.40;;;;;;5052367;28;21002;-69
2023/09/04 01:26:23;;;;;;;8.00;3.90;;;16.90;83.60;;;;;;5050509;28;20189;-70
2023/09/04 01:29:01;;;;;;;6.93;4.37;;;16.90;83.70;;;;;;5048769;28;20192;-68
2023/09/04 01:31:33;;;;;;;7.00;5.07;;;16.90;83.60;;;;;;5047330;28;20561;-69
2023/09/04 01:34:09;;;;;;;7.00;4.70;;;16.90;83.40;;;;;;5051499;28;20422;-68
2023/09/04 01:36:36;;;;;;;10.30;4.73;;;16.90;83.60;;;;;;5054364;28;20414;-69
2023/09/04 01:39:03;;;;;;;8.80;4.40;;;17.00;83.60;;;;;;5056634;28;20469;-68
2023/09/04 01:41:28;;;;;;;8.97;5.17;;;17.00;83.40;;;;;;5049545;28;20447;-69
2023/09/04 01:43:54;;;;;;;5.67;4.43;;;17.00;83.60;;;;;;5050890;28;20454;-69
2023/09/04 01:46:21;;;;;;;9.73;4.67;;;16.90;83.60;;;;;;5050063;28;20208;-69
2023/09/04 01:48:50;;;;;;;5.73;4.00;;;16.90;83.70;;;;;;5050051;28;20197;-70
2023/09/04 01:51:16;;;;;;;11.50;4.77;;;16.90;83.70;;;;;;5048044;28;20467;-68
2023/09/04 01:53:44;;;;;;;7.60;5.17;;;16.90;83.70;;;;;;5047446;28;20434;-69
2023/09/04 01:56:10;;;;;;;7.37;4.73;;;16.90;83.60;;;;;;5049319;28;20439;-68
2023/09/04 01:58:35;;;;;;;6.50;4.80;;;16.80;83.30;;;;;;5049820;28;20530;-70
2023/09/04 02:01:01;;;;;;;8.10;4.70;;;16.60;83.60;;;;;;5047573;28;20200;-69
2023/09/04 02:03:27;;;;;;;5.60;4.00;;;16.50;84.00;;;;;;5044138;28;20263;-69
2023/09/04 02:05:52;;;;;;;6.73;4.30;;;16.50;84.30;;;;;;5046471;28;20188;-67
2023/09/04 02:08:20;;;;;;;7.80;4.80;;;16.50;84.40;;;;;;5049861;28;20540;-69
2023/09/04 02:10:47;;;;;;;7.83;5.20;;;16.40;84.60;;;;;;5047080;28;20197;-68
2023/09/04 02:13:13;;;;;;;9.10;4.90;;;16.40;84.70;;;;;;5040479;28;20511;-69
2023/09/04 02:15:39;;;;;;;8.13;5.13;;;16.30;85.30;;;;;;5047712;28;20545;-69
2023/09/04 02:18:05;;;;;;;7.87;4.53;;;16.40;85.70;;;;;;5050035;28;20688;-69
2023/09/04 02:20:31;;;;;;;9.30;5.67;;;16.40;85.90;;;;;;5047372;28;20775;-69
2023/09/04 02:22:57;;;;;;;10.53;5.43;;;16.40;85.90;;;;;;5041391;28;20502;-69
2023/09/04 02:25:24;;;;;;;8.23;5.07;;;16.50;86.00;;;;;;5047642;28;20526;-68
2023/09/04 02:27:50;;;;;;;9.00;5.30;;;16.50;85.90;;;;;;5050606;28;20851;-69
2023/09/04 02:30:16;;;;;;;7.10;4.70;;;16.50;85.70;;;;;;5045647;28;20949;-69
2023/09/04 02:32:43;;;;;;;6.43;5.00;;;16.50;85.70;;;;;;5043344;28;20863;-69
2023/09/04 02:35:08;;;;;;;8.33;5.13;;;16.50;85.60;;;;;;5048477;28;20258;-68
2023/09/04 02:37:34;;;;;;;7.73;5.13;;;16.50;85.50;;;;;;5049976;28;20531;-69
2023/09/04 02:40:00;;;;;;;7.03;5.20;;;16.50;85.60;;;;;;5049449;28;20188;-69
2023/09/04 02:42:29;;;;;;;6.60;4.57;;;16.50;85.60;;;;;;5039301;28;20657;-70
2023/09/04 02:44:54;;;;;;;7.07;4.63;;;16.50;85.60;;;;;;5047191;28;20216;-69
2023/09/04 02:47:20;;;;;;;8.97;5.40;;;16.50;85.50;;;;;;5049316;28;20442;-69
2023/09/04 02:49:46;;;;;;;8.50;5.53;;;16.50;85.60;;;;;;5048164;28;20195;-70
2023/09/04 02:52:11;;;;;;;8.13;4.17;;;16.50;85.50;;;;;;5042811;28;20207;-68
2023/09/04 02:54:37;;;;;;;6.67;4.43;;;16.60;85.30;;;;;;5044120;28;20515;-68
2023/09/04 02:57:03;;;;;;;5.93;4.50;;;16.60;84.40;;;;;;5049421;28;20180;-68
2023/09/04 02:59:29;;;;;;;8.03;5.50;;;16.50;84.30;;;;;;5049721;28;20183;-68
2023/09/04 03:01:55;;;;;;;5.87;4.47;;;16.40;84.40;;;;;;5043494;28;20876;-69
2023/09/04 03:04:23;;;;;;;8.00;5.00;;;16.40;85.00;;;;;;5044774;28;21305;-70
2023/09/04 03:06:49;;;;;;;9.57;4.87;;;16.30;85.00;;;;;;5049339;28;20664;-69
2023/09/04 03:09:15;;;;;;;5.43;4.20;;;16.40;85.30;;;;;;5050967;28;20475;-70
2023/09/04 03:11:41;;;;;;;9.70;6.00;;;16.40;85.00;;;;;;5048865;28;20216;-69
2023/09/04 03:14:06;;;;;;;8.00;4.50;;;16.50;85.30;;;;;;5048561;28;20505;-69
2023/09/04 03:16:32;;;;;;;9.23;5.27;;;16.50;85.00;;;;;;5049747;28;20461;-70
2023/09/04 03:18:58;;;;;;;8.53;4.77;;;16.40;84.10;;;;;;5049291;28;20199;-69
2023/09/04 03:21:23;;;;;;;8.90;4.83;;;16.30;84.30;;;;;;5043211;28;20201;-66
2023/09/04 03:23:52;;;;;;;7.83;4.17;;;16.30;84.60;;;;;;5041376;28;20215;-66
2023/09/04 03:26:18;;;;;;;7.00;4.33;;;16.30;84.60;;;;;;5046676;28;20188;-68
2023/09/04 03:28:44;;;;;;;7.80;4.97;;;16.20;84.10;;;;;;5045402;28;20945;-69
2023/09/04 03:31:14;;;;;;;6.37;4.80;;;16.10;84.30;;;;;;5045354;28;20471;-70
2023/09/04 03:33:40;;;;;;;7.00;4.20;;;16.00;84.70;;;;;;5041908;28;20212;-68
2023/09/04 03:36:05;;;;;;;7.97;4.83;;;15.90;85.00;;;;;;5048495;28;20450;-70
2023/09/04 03:38:31;;;;;;;8.00;4.70;;;15.80;85.20;;;;;;5049798;28;20426;-69
2023/09/04 03:40:57;;;;;;;8.53;4.37;;;15.70;85.60;;;;;;5045671;28;20246;-68
2023/09/04 03:43:22;;;;;;;12.30;4.90;;;15.70;85.90;;;;;;5042381;28;20203;-68
2023/09/04 03:45:48;;;;;;;6.60;4.47;;;15.70;86.00;;;;;;5048293;28;20219;-69
2023/09/04 03:48:13;;;;;;;7.83;4.80;;;15.70;86.50;;;;;;5049041;28;20182;-69
2023/09/04 03:50:39;;;;;;;6.80;4.87;;;15.70;86.90;;;;;;5046303;28;20274;-70
2023/09/04 03:53:05;;;;;;;10.00;4.70;;;15.70;87.00;;;;;;5042732;28;20188;-69
2023/09/04 03:55:30;;;;;;;8.53;5.80;;;15.70;87.30;;;;;;5050674;28;20286;-71
2023/09/04 03:57:56;;;;;;;8.20;4.90;;;15.80;87.40;;;;;;5052316;28;20188;-69
2023/09/04 04:00:22;;;;;;;7.70;4.97;;;15.80;87.30;;;;;;5042825;28;20204;-70
2023/09/04 04:02:49;;;;;;;10.33;5.27;;;15.80;87.10;;;;;;5051187;28;20201;-69
2023/09/04 04:05:15;;;;;;;6.77;4.57;;;15.80;87.00;;;;;;5048089;28;20535;-69
2023/09/04 04:07:42;;;;;;;8.77;5.07;;;15.80;87.00;;;;;;5052369;28;20419;-69
2023/09/04 04:10:08;;;;;;;17.63;5.87;;;15.80;86.90;;;;;;5052115;28;20423;-67
2023/09/04 04:12:34;;;;;;;9.53;5.20;;;15.70;86.80;;;;;;5052423;28;20485;-70
2023/09/04 04:15:03;;;;;;;11.37;5.40;;;15.70;86.90;;;;;;5051910;28;20435;-70
2023/09/04 04:17:29;;;;;;;12.43;5.90;;;15.70;86.90;;;;;;5052148;28;20184;-70
2023/09/04 04:19:55;;;;;;;7.70;5.17;;;15.70;86.80;;;;;;5051131;28;20484;-69
2023/09/04 04:22:21;;;;;;;7.37;5.00;;;15.70;87.00;;;;;;5049191;28;20203;-68
2023/09/04 04:24:47;;;;;;;7.50;5.00;;;15.70;86.90;;;;;;5052490;28;20465;-69
2023/09/04 04:27:13;;;;;;;8.07;5.00;;;15.70;86.90;;;;;;5052592;28;20184;-70
2023/09/04 04:29:39;;;;;;;9.07;5.30;;;15.70;86.90;;;;;;5051725;28;20427;-69
2023/09/04 04:32:10;;;;;;;9.00;5.70;;;15.70;86.80;;;;;;5048582;28;20200;-68
2023/09/04 04:34:36;;;;;;;7.37;4.83;;;15.70;86.80;;;;;;5054065;28;20415;-68
2023/09/04 04:37:01;;;;;;;10.70;5.50;;;15.70;86.60;;;;;;5053844;28;20438;-70
2023/09/04 04:39:27;;;;;;;8.50;5.40;;;15.70;86.80;;;;;;5051762;28;20271;-71
2023/09/04 04:41:53;;;;;;;8.23;5.60;;;15.70;86.60;;;;;;5048758;28;20223;-69
2023/09/04 04:44:19;;;;;;;10.87;5.20;;;15.70;86.50;;;;;;5051945;28;20258;-68
2023/09/04 04:46:47;;;;;;;10.30;5.17;;;15.70;86.50;;;;;;5051752;28;20176;-69
2023/09/04 04:49:22;;;;;;;9.57;4.80;;;15.70;86.50;;;;;;5051340;28;20434;-69
2023/09/04 04:51:49;;;;;;;9.00;5.30;;;15.70;86.50;;;;;;5048071;28;20564;-69
2023/09/04 04:54:15;;;;;;;10.10;5.60;;;15.70;86.30;;;;;;5051243;28;20427;-69
2023/09/04 04:56:41;;;;;;;11.43;5.10;;;15.70;86.20;;;;;;5051835;28;20427;-68
2023/09/04 04:59:08;;;;;;;9.20;4.83;;;15.70;86.20;;;;;;5049829;28;20436;-69
2023/09/04 05:01:34;;;;;;;8.77;5.20;;;15.70;86.00;;;;;;5049557;28;20510;-69
2023/09/04 05:03:59;;;;;;;8.50;5.47;;;15.60;86.00;;;;;;5052404;28;20477;-69
2023/09/04 05:06:25;;;;;;;9.60;5.30;;;15.60;86.20;;;;;;5054816;28;20481;-68
2023/09/04 05:08:51;;;;;;;9.37;6.37;;;15.60;85.70;;;;;;5056936;28;20585;-69
2023/09/04 05:11:17;;;;;;;9.67;5.03;;;15.50;85.50;;;;;;5055361;28;20611;-69
2023/09/04 05:13:42;;;;;;;8.13;5.37;;;15.50;85.60;;;;;;5052723;28;20829;-69
2023/09/04 05:16:08;;;;;;;8.50;4.90;;;15.50;85.50;;;;;;5051802;28;20505;-69
2023/09/04 05:18:34;;;;;;;7.47;5.10;;;15.50;85.50;;;;;;5051020;28;20215;-70
2023/09/04 05:20:59;;;;;;;7.93;4.87;;;15.40;85.50;;;;;;5048462;28;20206;-69
2023/09/04 05:23:25;;;;;;;9.17;5.90;;;15.40;85.60;;;;;;5044933;28;20256;-69
2023/09/04 05:25:52;;;;;;;11.13;5.23;;;15.40;85.90;;;;;;5050398;28;20359;-68
2023/09/04 05:28:18;;;;;;;8.93;5.77;;;15.40;86.00;;;;;;5047555;28;20699;-69
2023/09/04 05:30:44;;;;;;;9.07;5.27;;;15.40;86.30;;;;;;5046088;28;21243;-71
2023/09/04 05:33:09;;;;;;;11.87;5.70;;;15.40;86.30;;;;;;5052049;28;20429;-70
2023/09/04 05:35:35;;;;;;;14.43;5.67;;;15.40;86.30;;;;;;5052801;28;20192;-70
2023/09/04 05:38:01;;;;;;;10.80;5.43;;;15.50;86.20;;;;;;5051945;28;20191;-70
2023/09/04 05:40:26;;;;;;;10.30;6.03;;;15.50;85.90;;;;;;5049405;28;20203;-71
2023/09/04 05:42:52;;;;;;;8.43;5.93;;;15.60;85.60;;;;;;5067919;28;20224;-69
2023/09/04 05:45:19;;;;;;;10.33;5.90;;;15.60;85.30;;;;;;5053331;28;20207;-69
2023/09/04 05:47:46;;;;;;;12.60;5.87;;;15.60;85.50;;;;;;5050720;28;20641;-70
2023/09/04 05:50:11;;;;;;;12.23;6.80;;;15.60;85.70;;;;;;5049870;28;20426;-71
2023/09/04 05:52:37;;;;;;;10.23;6.80;;;15.70;86.20;;;;;;5047951;28;20455;-72
2023/09/04 05:55:03;;;;;;;11.40;6.60;;;15.70;86.20;;;;;;5050697;28;20181;-69
2023/09/04 05:57:29;;;;;;;11.00;6.70;;;15.80;86.30;;;;;;5050077;28;20227;-67
2023/09/04 05:59:54;;;;;;;9.23;6.10;;;15.80;86.20;;;;;;5048752;28;20442;-67
2023/09/04 06:02:20;;;;;;;10.70;6.30;;;15.90;86.00;;;;;;5047525;28;20203;-69
2023/09/04 06:04:46;;;;;;;11.90;6.00;;;16.00;85.90;;;;;;5049954;28;20259;-69
2023/09/04 06:07:14;;;;;;;12.40;6.43;;;16.00;85.70;;;;;;5050220;28;20184;-68
2023/09/04 06:09:40;;;;;;;9.73;6.53;;;16.10;85.60;;;;;;5050026;28;20422;-69
2023/09/04 06:12:08;;;;;;;10.93;7.03;;;16.10;85.30;;;;;;5046797;28;20457;-70
2023/09/04 06:14:34;;;;;;;10.17;6.43;;;16.20;85.20;;;;;;5050691;28;20221;-68
2023/09/04 06:17:00;;;;;;;9.80;6.10;;;16.30;85.00;;;;;;5048216;28;20442;-67
2023/09/04 06:19:25;;;;;;;16.00;7.23;;;16.30;85.00;;;;;;5049692;28;20450;-68
2023/09/04 06:21:51;;;;;;;11.27;6.90;;;16.40;84.70;;;;;;5044801;28;20200;-71
2023/09/04 06:24:17;;;;;;;10.77;6.97;;;16.50;84.40;;;;;;5049881;28;20237;-69
2023/09/04 06:26:42;;;;;;;12.70;7.13;;;16.50;84.10;;;;;;5051230;28;20291;-68
2023/09/04 06:29:08;;;;;;;10.30;6.37;;;16.60;83.70;;;;;;5050035;28;20185;-70
2023/09/04 06:31:33;;;;;;;11.40;7.13;;;16.60;83.70;;;;;;5046323;28;20280;-70
2023/09/04 06:33:59;;;;;;;11.03;6.77;;;16.60;83.70;;;;;;5051885;28;20246;-69
2023/09/04 06:36:25;;;;;;;10.67;6.60;;;16.70;83.70;;;;;;5049901;28;20207;-67
2023/09/04 06:38:52;;;;;;;13.67;7.57;;;16.70;83.60;;;;;;5051561;28;20311;-69
2023/09/04 06:41:19;;;;;;;13.47;8.03;;;16.80;83.60;;;;;;5047658;28;20212;-70
2023/09/04 06:43:45;;;;;;;14.47;8.87;;;16.80;83.40;;;;;;5043370;28;20550;-67
2023/09/04 06:46:11;;;;;;;13.97;8.00;;;16.80;83.40;;;;;;5050269;28;20502;-68
2023/09/04 06:48:37;;;;;;;9.40;6.80;;;16.80;83.30;;;;;;5055226;28;20188;-72
2023/09/04 06:51:02;;;;;;;10.90;6.93;;;16.90;83.00;;;;;;5048923;28;20208;-68
2023/09/04 06:53:28;;;;;;;11.60;7.00;;;17.00;82.80;;;;;;5048966;28;20805;-70
2023/09/04 06:55:53;;;;;;;12.30;6.50;;;17.10;82.70;;;;;;5051243;28;20185;-68
2023/09/04 06:58:19;;;;;;;10.27;6.60;;;17.20;82.50;;;;;;5050562;28;20676;-70
2023/09/04 07:00:45;;;;;;;13.00;7.33;;;17.30;82.40;;;;;;5046903;28;20204;-69
2023/09/04 07:03:10;;;;;;;14.97;8.37;;;17.30;81.90;;;;;;5050373;28;20184;-68
2023/09/04 07:05:36;;;;;;;15.53;8.00;;;17.30;81.80;;;;;;5053204;28;20197;-67
2023/09/04 07:08:04;;;;;;;18.40;7.17;;;17.30;81.70;;;;;;5054791;28;20188;-70
2023/09/04 07:10:30;;;;;;;13.27;7.80;;;17.40;81.50;;;;;;5050611;28;20213;-68
2023/09/04 07:12:55;;;;;;;15.23;7.70;;;17.50;81.40;;;;;;5050030;28;20937;-67
2023/09/04 07:15:21;;;;;;;12.10;6.80;;;17.70;80.80;;;;;;5050541;28;20182;-69
2023/09/04 07:17:47;;;;;;;14.30;7.70;;;17.80;80.50;;;;;;5050075;28;20250;-68
2023/09/04 07:20:13;;;;;;;12.17;6.50;;;17.90;79.90;;;;;;5063182;28;20190;-68
2023/09/04 07:22:38;;;;;;;11.43;7.20;;;18.00;79.60;;;;;;5048810;28;20522;-68
2023/09/04 07:25:05;;;;;;;12.20;7.10;;;18.00;79.30;;;;;;5046929;28;20694;-69
2023/09/04 07:27:31;;;;;;;11.43;7.00;;;18.10;79.30;;;;;;5050496;28;20183;-70
2023/09/04 07:29:58;;;;;;;12.00;6.90;;;18.20;79.30;;;;;;5050738;28;20445;-69
2023/09/04 07:32:25;;;;;;;11.23;7.23;;;18.30;78.90;;;;;;5052938;28;20189;-68
2023/09/04 07:34:55;;;;;;;10.67;6.43;;;18.40;78.70;;;;;;5053004;28;20422;-69
2023/09/04 07:37:22;;;;;;;9.47;6.60;;;18.60;77.80;;;;;;5055082;28;20470;-69
2023/09/04 07:39:48;;;;;;;10.13;6.73;;;18.60;77.70;;;;;;5048979;28;20977;-67
2023/09/04 07:42:13;;;;;;;12.20;6.43;;;18.60;77.10;;;;;;5054047;28;20470;-68
2023/09/04 07:44:39;;;;;;;12.27;7.03;;;18.70;76.70;;;;;;5054962;28;20217;-69
2023/09/04 07:47:05;;;;;;;12.23;7.40;;;18.80;76.50;;;;;;5057007;28;20177;-68
2023/09/04 07:49:30;;;;;;;9.70;6.17;;;18.90;75.70;;;;;;5057530;28;20185;-69
2023/09/04 07:51:56;;;;;;;11.77;6.73;;;19.00;75.40;;;;;;5051850;28;20214;-69
2023/09/04 07:54:25;;;;;;;11.50;6.50;;;19.10;74.60;;;;;;5053784;28;20186;-69
2023/09/04 07:56:50;;;;;;;10.10;6.73;;;19.20;74.50;;;;;;5051807;28;20434;-68
2023/09/04 07:59:16;;;;;;;10.73;6.60;;;19.30;73.70;;;;;;5047633;28;20488;-68
2023/09/04 08:01:44;;;;;;;11.07;7.13;;;19.30;73.60;;;;;;5051344;28;20303;-68
2023/09/04 08:04:10;;;;;;;9.13;5.93;;;19.50;73.30;;;;;;5054478;28;20211;-67
2023/09/04 08:06:36;;;;;;;16.27;6.50;;;19.60;73.00;;;;;;5054814;28;20428;-69
2023/09/04 08:09:01;;;;;;;13.50;7.13;;;19.70;72.40;;;;;;5054660;28;20263;-69
2023/09/04 08:11:27;;;;;;;11.17;6.87;;;19.80;71.40;;;;;;5052101;28;20205;-69
2023/09/04 08:13:53;;;;;;;10.67;5.80;;;19.90;71.40;;;;;;5056001;28;20181;-69
2023/09/04 08:16:18;;;;;;;9.47;6.10;;;20.00;70.70;;;;;;5049893;28;20186;-68
2023/09/04 08:18:44;;;;;;;9.13;5.90;;;20.20;69.40;;;;;;5053779;28;20201;-70
2023/09/04 08:21:09;;;;;;;8.13;5.53;;;20.30;68.60;;;;;;5052496;28;20217;-69
2023/09/04 08:23:35;;;;;;;8.70;6.23;;;20.40;68.20;;;;;;5056017;28;20304;-69
2023/09/04 08:26:03;;;;;;;7.27;5.90;;;20.50;68.20;;;;;;5051596;28;20252;-69
2023/09/04 08:28:28;;;;;;;8.33;5.90;;;20.60;67.60;;;;;;5056842;28;20723;-70
2023/09/04 08:30:54;;;;;;;12.13;6.77;;;20.70;67.50;;;;;;5049660;28;20469;-70
2023/09/04 08:33:20;;;;;;;10.60;5.83;;;20.80;67.20;;;;;;5055791;28;20629;-68
2023/09/04 08:35:46;;;;;;;12.70;6.30;;;20.90;66.30;;;;;;5055195;28;20438;-69
2023/09/04 08:38:11;;;;;;;9.70;5.57;;;21.00;65.60;;;;;;5055084;28;20197;-70
2023/09/04 08:40:40;;;;;;;7.37;5.80;;;21.10;64.70;;;;;;5052030;28;20240;-68
2023/09/04 08:43:07;;;;;;;8.13;5.07;;;21.20;65.00;;;;;;5054433;28;20281;-68
2023/09/04 08:45:40;;;;;;;8.67;6.03;;;21.30;64.40;;;;;;5055002;28;20479;-68
2023/09/04 08:48:06;;;;;;;6.23;4.80;;;21.40;63.90;;;;;;5054604;28;20410;-70
2023/09/04 08:50:32;;;;;;;7.87;5.40;;;21.50;63.70;;;;;;5051146;28;20476;-69
2023/09/04 08:52:58;;;;;;;5.90;4.97;;;21.60;63.70;;;;;;5052540;28;20929;-70
2023/09/04 08:55:25;;;;;;;7.37;5.90;;;21.60;63.20;;;;;;5054505;28;20657;-69
2023/09/04 08:57:51;;;;;;;7.53;5.67;;;21.70;63.10;;;;;;5047214;28;20421;-69
2023/09/04 09:00:19;;;;;;;8.00;5.60;;;21.80;63.20;;;;;;5052738;28;20425;-69
2023/09/04 09:02:45;;;;;;;12.80;6.90;;;21.90;62.90;;;;;;5054474;28;20183;-68
2023/09/04 09:05:17;;;;;;;6.20;5.27;;;22.00;63.10;;;;;;5054412;28;20539;-70
2023/09/04 09:07:44;;;;;;;7.50;5.77;;;22.00;62.50;;;;;;5048503;28;20184;-67
2023/09/04 09:10:16;;;;;;;6.30;5.30;;;22.20;62.30;;;;;;5050745;28;20768;-68
2023/09/04 09:12:42;;;;;;;7.50;5.27;;;22.30;62.30;;;;;;5054701;28;20493;-70
2023/09/04 09:15:08;;;;;;;9.67;6.37;;;22.40;62.20;;;;;;5054444;28;20446;-69
2023/09/04 09:17:33;;;;;;;10.23;5.70;;;22.40;62.30;;;;;;5055272;28;20179;-70
2023/09/04 09:19:59;;;;;;;7.00;5.47;;;22.40;62.30;;;;;;5054453;28;20301;-71
2023/09/04 09:22:25;;;;;;;7.53;5.13;;;22.50;62.30;;;;;;5048388;28;20176;-68
2023/09/04 09:24:56;;;;;;;12.07;5.20;;;22.60;62.80;;;;;;5051971;28;20851;-69
2023/09/04 09:27:32;;;;;;;8.13;5.53;;;22.60;62.60;;;;;;5053365;28;20271;-69
2023/09/04 09:30:02;;;;;;;9.17;7.23;;;22.80;62.60;;;;;;5053470;28;20421;-68
2023/09/04 09:32:30;;;;;;;5.30;4.70;;;22.90;62.50;;;;;;5051185;28;20428;-68
2023/09/04 09:34:57;;;;;;;6.67;4.60;;;22.90;62.30;;;;;;5052590;28;20542;-69
2023/09/04 09:37:25;;;;;;;5.97;4.33;;;23.10;62.00;;;;;;5045197;28;20835;-68
2023/09/04 09:39:54;;;;;;;7.03;4.87;;;23.10;61.70;;;;;;5050625;28;20426;-69
2023/09/04 09:42:25;;;;;;;8.37;5.93;;;23.10;61.70;;;;;;5048131;28;20444;-68
2023/09/04 09:44:51;;;;;;;6.07;5.20;;;23.20;61.60;;;;;;5060129;28;20466;-69
2023/09/04 09:47:17;;;;;;;8.23;5.00;;;23.20;61.00;;;;;;5046701;28;20413;-68
2023/09/04 09:49:43;;;;;;;7.03;5.50;;;23.30;60.90;;;;;;5050726;28;20417;-69
2023/09/04 09:52:10;;;;;;;7.47;5.03;;;23.30;61.00;;;;;;5047667;28;20214;-68
2023/09/04 09:54:41;;;;;;;6.23;4.80;;;23.30;61.30;;;;;;5051218;28;20996;-69
2023/09/04 09:57:16;;;;;;;6.20;5.10;;;23.30;61.00;;;;;;5050598;28;20448;-68
2023/09/04 09:59:49;;;;;;;6.50;4.50;;;23.40;60.60;;;;;;5045814;28;20937;-68
2023/09/04 10:02:22;;;;;;;6.60;4.13;;;23.50;60.10;;;;;;5045964;28;20450;-69
2023/09/04 10:04:49;;;;;;;6.67;4.90;;;23.50;59.60;;;;;;5050199;28;21000;-68
2023/09/04 10:07:24;;;;;;;7.60;4.77;;;23.60;59.10;;;;;;5050252;28;20424;-68
2023/09/04 10:10:03;;;;;;;6.00;4.50;;;23.70;58.50;;;;;;5049999;28;20516;-70
2023/09/04 10:12:35;;;;;;;6.33;4.50;;;23.80;58.20;;;;;;5047878;28;20435;-69
2023/09/04 10:15:05;;;;;;;5.80;4.93;;;23.90;58.00;;;;;;5050561;28;20432;-69
2023/09/04 10:17:39;;;;;;;6.30;4.50;;;24.00;58.10;;;;;;5050534;28;20422;-70
2023/09/04 10:20:06;;;;;;;7.03;4.23;;;24.10;58.10;;;;;;5050004;28;20441;-68
2023/09/04 10:22:37;;;;;;;6.90;4.27;;;24.20;57.20;;;;;;5048798;28;20488;-69
2023/09/04 10:25:12;;;;;;;6.67;4.57;;;24.20;56.60;;;;;;5050601;28;20916;-69
2023/09/04 10:28:11;;;;;;;5.17;4.30;;;24.20;56.50;;;;;;5052603;28;20448;-69
2023/09/04 10:30:41;;;;;;;5.87;4.83;;;24.20;57.20;;;;;;5046279;28;20833;-68
2023/09/04 10:33:07;;;;;;;8.40;4.70;;;24.30;56.90;;;;;;5056802;28;20408;-68
2023/09/04 10:35:33;;;;;;;5.30;4.40;;;24.40;56.50;;;;;;5059709;28;20459;-69
2023/09/04 10:37:59;;;;;;;7.40;4.60;;;24.50;56.50;;;;;;5052176;28;20483;-70
2023/09/04 10:40:28;;;;;;;7.80;4.77;;;24.50;56.50;;;;;;5048664;28;20230;-69
2023/09/04 10:42:54;;;;;;;7.60;4.60;;;24.60;56.40;;;;;;5047406;28;20195;-69
2023/09/04 10:45:20;;;;;;;7.57;5.00;;;25.00;56.40;;;;;;5050241;28;20857;-70
2023/09/04 10:47:48;;;;;;;4.10;3.60;;;25.50;55.20;;;;;;5066959;28;20421;-69
2023/09/04 10:50:35;;;;;;;7.13;5.00;;;25.90;54.40;;;;;;5047424;28;20190;-70
2023/09/04 10:53:04;;;;;;;4.93;3.87;;;26.30;52.50;;;;;;5050098;28;20609;-70
2023/09/04 10:55:31;;;;;;;6.10;4.33;;;26.80;52.10;;;;;;5051607;28;20451;-68
2023/09/04 10:58:01;;;;;;;6.73;3.93;;;27.30;49.00;;;;;;5052068;28;20426;-71
2023/09/04 11:00:37;;;;;;;5.00;4.60;;;27.60;47.50;;;;;;5047786;28;21280;-69
2023/09/04 11:03:24;;;;;;;4.80;3.97;;;27.60;47.80;;;;;;5050418;28;21097;-70
2023/09/04 11:06:02;;;;;;;5.13;4.40;;;27.80;47.70;;;;;;5050248;28;20485;-69
2023/09/04 11:08:29;;;;;;;5.40;3.83;;;28.00;46.70;;;;;;5054964;28;20415;-69
2023/09/04 11:11:06;;;;;;;4.10;3.60;;;28.30;46.60;;;;;;5052308;28;20473;-68
2023/09/04 11:13:37;;;;;;;7.90;4.23;;;28.40;45.40;;;;;;5057495;28;20469;-68
2023/09/04 11:16:04;;;;;;;6.37;4.10;;;28.60;44.90;;;;;;5050893;28;20950;-69
2023/09/04 11:18:39;;;;;;;4.40;3.40;;;28.50;44.60;;;;;;5054096;28;21025;-69
2023/09/04 11:21:05;;;;;;;5.10;3.83;;;28.50;43.20;;;;;;5049196;28;20461;-70
2023/09/04 11:23:33;;;;;;;5.93;4.17;;;28.30;41.80;;;;;;5054193;28;20418;-69
2023/09/04 11:26:02;;;;;;;5.20;4.40;;;28.20;41.40;;;;;;5054103;28;20467;-70
2023/09/04 11:28:30;;;;;;;5.10;4.13;;;28.30;42.20;;;;;;5050604;28;20793;-70
2023/09/04 11:31:26;;;;;;;4.57;3.60;;;28.40;42.00;;;;;;5051505;28;20455;-71
2023/09/04 11:34:04;;;;;;;6.10;4.70;;;28.50;41.20;;;;;;5053166;28;20477;-69
2023/09/04 11:36:30;;;;;;;5.30;4.20;;;28.60;42.30;;;;;;5052842;28;20989;-70
2023/09/04 11:39:12;;;;;;;4.73;3.87;;;28.70;41.80;;;;;;5052531;28;20426;-70
2023/09/04 11:41:38;;;;;;;6.40;4.27;;;28.80;42.60;;;;;;5050202;28;20366;-69
2023/09/04 11:44:07;;;;;;;4.87;4.07;;;29.00;41.90;;;;;;5053487;28;20532;-70
2023/09/04 11:46:34;;;;;;;5.63;4.53;;;29.40;40.60;;;;;;5053637;28;20419;-68
2023/09/04 11:49:03;;;;;;;5.77;3.60;;;29.40;40.40;;;;;;5053518;28;20431;-70
2023/09/04 11:51:30;;;;;;;5.00;4.00;;;29.00;41.40;;;;;;5051259;28;20467;-68
2023/09/04 11:53:56;;;;;;;4.40;4.07;;;28.70;41.90;;;;;;5053252;28;20542;-69
2023/09/04 11:56:22;;;;;;;6.53;4.77;;;28.70;43.00;;;;;;5054640;28;20522;-70
2023/09/04 11:58:47;;;;;;;5.00;3.87;;;29.10;42.70;;;;;;5051549;28;20185;-68
2023/09/04 12:01:13;;;;;;;5.27;3.87;;;29.10;41.50;;;;;;5050278;28;20735;-70
2023/09/04 12:03:39;;;;;;;4.80;4.00;;;29.30;41.80;;;;;;5052732;28;20227;-70
2023/09/04 12:06:05;;;;;;;8.53;4.20;;;29.40;41.10;;;;;;5052866;28;20193;-70
2023/09/04 12:08:30;;;;;;;5.50;3.77;;;29.50;40.40;;;;;;5052665;28;20243;-70
2023/09/04 12:10:56;;;;;;;6.87;3.93;;;29.80;40.30;;;;;;5044345;28;20219;-70
2023/09/04 12:13:23;;;;;;;5.17;3.97;;;30.10;38.60;;;;;;5052535;28;20180;-70
2023/09/04 12:15:48;;;;;;;5.20;3.70;;;30.30;37.50;;;;;;5052416;28;20427;-69
2023/09/04 12:18:15;;;;;;;4.50;3.17;;;30.10;37.60;;;;;;5053046;28;20453;-70
2023/09/04 12:20:43;;;;;;;8.60;3.90;;;30.20;38.60;;;;;;5050174;28;20695;-70
2023/09/04 12:23:09;;;;;;;6.23;3.73;;;30.30;37.50;;;;;;5054023;28;20439;-69
2023/09/04 12:25:40;;;;;;;4.40;3.50;;;30.10;37.50;;;;;;5057219;28;20474;-69
2023/09/04 12:28:10;;;;;;;4.80;4.17;;;30.20;38.60;;;;;;5056470;28;20468;-69
2023/09/04 12:30:44;;;;;;;6.03;4.27;;;30.20;37.50;;;;;;5039554;28;20927;-69
2023/09/04 12:33:14;;;;;;;4.77;3.50;;;30.30;38.20;;;;;;5058751;28;20419;-70
2023/09/04 12:35:43;;;;;;;7.70;3.97;;;30.40;35.60;;;;;;5054090;28;20955;-69
2023/09/04 12:38:10;;;;;;;5.43;3.57;;;30.60;34.30;;;;;;5050172;28;20431;-68
2023/09/04 12:40:36;;;;;;;5.13;3.33;;;30.30;33.70;;;;;;5050227;28;20448;-70
2023/09/04 12:43:03;;;;;;;4.60;3.50;;;30.30;33.20;;;;;;5053295;28;20502;-69